Time;durP1;ratioP1;P1;durP2;ratioP2;P2;SDS_P1;SDS_P2;PMS_P1;PMS_P2;Temp;Humidity;BMP_temperature;BMP_pressure;BME280_temperature;BME280_humidity;BME280_pressure;Samples;Min_cycle;Max_cycle;Signal;HPM_P1;HPM_P2
2022/05/13 00:01:08;;;;;;;5.68;2.45;;;15.50;99.90;;;;;;5062616;28;20071;-75
2022/05/13 00:03:34;;;;;;;5.22;2.67;;;15.40;99.90;;;;;;5061930;28;20082;-75
2022/05/13 00:06:00;;;;;;;4.88;2.88;;;15.20;99.90;;;;;;5070086;28;20360;-75
2022/05/13 00:08:26;;;;;;;7.22;2.60;;;15.20;99.90;;;;;;5065144;28;20077;-75
2022/05/13 00:10:53;;;;;;;3.55;2.55;;;15.30;99.90;;;;;;5058460;28;20021;-75
2022/05/13 00:13:19;;;;;;;4.38;2.58;;;15.10;99.90;;;;;;5059860;28;20020;-75
2022/05/13 00:15:44;;;;;;;4.97;2.55;;;15.10;99.90;;;;;;5070038;28;20025;-75
2022/05/13 00:18:10;;;;;;;3.58;2.67;;;15.00;99.90;;;;;;5064594;28;20604;-75
2022/05/13 00:20:37;;;;;;;4.30;2.80;;;15.00;99.90;;;;;;5062651;28;20060;-75
2022/05/13 00:23:03;;;;;;;4.78;2.90;;;15.10;99.90;;;;;;5060939;28;20028;-75
2022/05/13 00:25:31;;;;;;;5.70;2.47;;;15.20;99.90;;;;;;5058024;28;20033;-76
2022/05/13 00:27:59;;;;;;;3.33;2.60;;;15.00;99.90;;;;;;5066684;28;20033;-75
2022/05/13 00:30:27;;;;;;;4.47;2.78;;;14.90;99.90;;;;;;5063579;28;20025;-75
2022/05/13 00:32:52;;;;;;;4.30;2.53;;;15.00;99.90;;;;;;5059132;28;20490;-74
2022/05/13 00:35:19;;;;;;;5.18;2.75;;;14.80;99.90;;;;;;5073195;28;20028;-74
2022/05/13 00:37:45;;;;;;;3.92;2.58;;;14.80;99.90;;;;;;5071554;28;20471;-74
2022/05/13 00:40:13;;;;;;;3.95;2.50;;;14.80;99.90;;;;;;5072841;28;20060;-74
2022/05/13 00:42:38;;;;;;;6.28;2.80;;;14.90;99.90;;;;;;5072841;28;20028;-75
2022/05/13 00:45:05;;;;;;;3.95;2.85;;;14.90;99.90;;;;;;5071576;28;20032;-75
2022/05/13 00:47:31;;;;;;;5.00;2.30;;;15.10;99.90;;;;;;5072779;28;20021;-75
2022/05/13 00:49:59;;;;;;;4.95;2.53;;;15.10;99.90;;;;;;5073026;28;20470;-75
2022/05/13 00:52:26;;;;;;;6.15;2.60;;;15.10;99.90;;;;;;5065614;28;20025;-75
2022/05/13 00:54:53;;;;;;;5.40;2.70;;;15.00;99.90;;;;;;5052665;28;20491;-75
2022/05/13 00:57:19;;;;;;;5.47;2.75;;;14.90;99.90;;;;;;5052579;28;20029;-74
2022/05/13 00:59:46;;;;;;;7.13;2.70;;;14.90;99.90;;;;;;5051466;28;20056;-74
2022/05/13 01:02:12;;;;;;;4.35;2.60;;;15.10;99.90;;;;;;5052515;28;20032;-73
2022/05/13 01:04:39;;;;;;;5.32;2.60;;;15.20;99.90;;;;;;5052390;28;20398;-75
2022/05/13 01:07:09;;;;;;;5.55;2.30;;;15.20;99.90;;;;;;5056492;28;20083;-75
2022/05/13 01:09:41;;;;;;;3.45;2.38;;;15.20;99.90;;;;;;5052438;28;20479;-75
2022/05/13 01:12:11;;;;;;;4.85;2.67;;;15.20;99.90;;;;;;5051857;28;20132;-75
2022/05/13 01:14:48;;;;;;;4.40;2.50;;;15.20;99.90;;;;;;5052292;28;20498;-75
2022/05/13 01:20:10;;;;;;;6.35;2.75;;;15.20;99.90;;;;;;5052294;28;20079;-76
2022/05/13 01:22:46;;;;;;;6.80;2.53;;;14.90;99.90;;;;;;5050479;28;20029;-75
2022/05/13 01:25:15;;;;;;;3.20;2.53;;;14.80;99.90;;;;;;5060704;28;20017;-76
2022/05/13 01:27:45;;;;;;;5.57;2.58;;;14.90;99.90;;;;;;5056467;28;20033;-75
2022/05/13 01:30:14;;;;;;;3.45;2.30;;;14.50;99.90;;;;;;5051808;28;20048;-74
2022/05/13 01:32:40;;;;;;;4.45;2.40;;;14.50;99.90;;;;;;5055315;28;20025;-76
2022/05/13 01:35:06;;;;;;;4.60;2.70;;;14.70;99.90;;;;;;5061761;28;20067;-77
2022/05/13 01:37:33;;;;;;;4.57;2.30;;;14.50;99.90;;;;;;5065768;28;20075;-76
2022/05/13 01:39:59;;;;;;;4.53;2.63;;;14.40;99.90;;;;;;5052319;28;20021;-75
2022/05/13 01:42:24;;;;;;;3.67;2.50;;;14.30;99.90;;;;;;5065172;28;20036;-75
2022/05/13 01:44:50;;;;;;;5.35;2.50;;;14.20;99.90;;;;;;5062019;28;20025;-74
2022/05/13 01:47:15;;;;;;;5.40;2.88;;;14.10;99.90;;;;;;5058329;28;20115;-74
2022/05/13 01:49:41;;;;;;;4.45;2.83;;;14.20;99.90;;;;;;5062176;28;20028;-74
2022/05/13 01:52:06;;;;;;;5.07;2.72;;;14.30;99.90;;;;;;5064927;28;20066;-74
2022/05/13 01:54:32;;;;;;;4.28;2.40;;;14.20;99.90;;;;;;5061631;28;20432;-74
2022/05/13 01:56:57;;;;;;;5.22;2.50;;;14.20;99.90;;;;;;5072411;28;20036;-74
2022/05/13 01:59:23;;;;;;;6.60;2.90;;;14.10;99.90;;;;;;5062558;28;20406;-74
2022/05/13 02:01:48;;;;;;;5.25;2.33;;;14.10;99.90;;;;;;5053716;28;20029;-74
2022/05/13 02:04:14;;;;;;;3.80;2.45;;;14.20;99.90;;;;;;5062351;28;20111;-74
2022/05/13 02:06:39;;;;;;;4.45;2.65;;;14.30;99.90;;;;;;5062914;28;20472;-76
2022/05/13 02:09:05;;;;;;;7.13;2.80;;;14.40;99.90;;;;;;5070564;28;20055;-76
2022/05/13 02:11:36;;;;;;;5.15;2.45;;;14.40;99.90;;;;;;5057957;28;20472;-76
2022/05/13 02:14:04;;;;;;;3.92;2.08;;;14.50;99.90;;;;;;5062221;28;20553;-76
2022/05/13 02:16:29;;;;;;;5.00;2.38;;;14.50;99.90;;;;;;5051514;28;20043;-77
2022/05/13 02:18:55;;;;;;;6.57;2.85;;;14.60;99.90;;;;;;5059918;28;20557;-75
2022/05/13 02:21:20;;;;;;;3.92;2.33;;;14.60;99.90;;;;;;5055385;28;20032;-77
2022/05/13 02:23:46;;;;;;;4.03;2.00;;;14.50;99.90;;;;;;5061138;28;20097;-76
2022/05/13 02:26:13;;;;;;;5.78;2.70;;;14.60;99.90;;;;;;5059358;28;20433;-77
2022/05/13 02:28:39;;;;;;;3.55;2.30;;;14.40;99.90;;;;;;5071850;28;20017;-76
2022/05/13 02:31:05;;;;;;;3.45;2.60;;;14.60;99.90;;;;;;5057580;28;20078;-77
2022/05/13 02:33:32;;;;;;;5.05;2.50;;;14.40;99.90;;;;;;5060761;28;20063;-77
2022/05/13 02:35:59;;;;;;;5.25;2.90;;;14.10;99.90;;;;;;5070923;28;20116;-76
2022/05/13 02:38:25;;;;;;;5.65;2.70;;;13.70;99.90;;;;;;5051487;28;20483;-76
2022/05/13 02:43:35;;;;;;;3.63;2.50;;;14.00;99.90;;;;;;5051315;28;20036;-76
2022/05/13 02:46:01;;;;;;;4.63;3.10;;;13.90;99.90;;;;;;5050997;28;20025;-75
2022/05/13 02:48:26;;;;;;;4.90;2.40;;;14.00;99.90;;;;;;5063767;28;20406;-77
2022/05/13 02:50:52;;;;;;;7.65;2.75;;;14.10;99.90;;;;;;5069508;28;20029;-77
2022/05/13 02:53:18;;;;;;;6.30;2.80;;;14.00;99.90;;;;;;5070278;28;20021;-77
2022/05/13 02:55:43;;;;;;;4.45;2.45;;;14.00;99.90;;;;;;5067800;28;20075;-77
2022/05/13 02:58:09;;;;;;;5.15;2.50;;;14.00;99.90;;;;;;5055499;28;20394;-77
2022/05/13 03:00:35;;;;;;;5.10;2.67;;;14.00;99.90;;;;;;5061835;28;20031;-76
2022/05/13 03:03:01;;;;;;;4.68;2.72;;;13.80;99.90;;;;;;5065936;28;20104;-77
2022/05/13 03:05:28;;;;;;;3.90;2.95;;;13.80;99.90;;;;;;5054903;28;20170;-76
2022/05/13 03:07:54;;;;;;;4.45;2.70;;;13.70;99.90;;;;;;5054878;28;20025;-76
2022/05/13 03:10:20;;;;;;;6.03;3.10;;;13.80;99.90;;;;;;5067729;28;20096;-76
2022/05/13 03:12:46;;;;;;;8.40;2.80;;;14.00;99.90;;;;;;5067331;28;20116;-77
2022/05/13 03:15:12;;;;;;;4.35;2.75;;;14.00;99.90;;;;;;5061162;28;20017;-76
2022/05/13 03:17:39;;;;;;;4.90;2.50;;;13.90;99.90;;;;;;5060976;28;20021;-76
2022/05/13 03:20:06;;;;;;;5.78;2.60;;;13.90;99.90;;;;;;5066618;28;20051;-76
2022/05/13 03:22:32;;;;;;;5.20;2.58;;;13.80;99.90;;;;;;5066975;28;20099;-75
2022/05/13 03:24:59;;;;;;;5.55;2.30;;;13.80;99.90;;;;;;5061353;28;20112;-76
2022/05/13 03:27:26;;;;;;;5.78;2.72;;;13.90;99.90;;;;;;5061881;28;20059;-75
2022/05/13 03:29:51;;;;;;;4.45;2.53;;;14.10;99.90;;;;;;5066883;28;20021;-75
2022/05/13 03:32:17;;;;;;;7.15;2.45;;;14.10;99.90;;;;;;5066694;28;20324;-75
2022/05/13 03:34:42;;;;;;;4.28;2.40;;;14.20;99.90;;;;;;5061111;28;20104;-76
2022/05/13 03:37:08;;;;;;;6.55;2.70;;;14.20;99.90;;;;;;5061518;28;20398;-76
2022/05/13 03:39:33;;;;;;;5.85;2.75;;;14.20;99.90;;;;;;5067798;28;20036;-74
2022/05/13 03:41:59;;;;;;;7.13;3.00;;;14.20;99.90;;;;;;5066541;28;20060;-75
2022/05/13 03:44:24;;;;;;;3.88;2.10;;;14.20;99.90;;;;;;5068568;28;20041;-74
2022/05/13 03:46:50;;;;;;;5.05;2.70;;;14.30;99.90;;;;;;5066374;28;20032;-74
2022/05/13 03:49:15;;;;;;;3.83;2.33;;;14.30;99.90;;;;;;5060562;28;20107;-74
2022/05/13 03:51:41;;;;;;;6.60;2.92;;;14.20;99.90;;;;;;5059969;28;20074;-75
2022/05/13 03:54:07;;;;;;;4.57;2.53;;;14.20;99.90;;;;;;5072827;28;20105;-76
2022/05/13 03:56:33;;;;;;;6.07;2.75;;;14.20;99.90;;;;;;5073917;28;20120;-76
2022/05/13 03:58:58;;;;;;;5.70;2.70;;;14.00;99.90;;;;;;5073892;28;20028;-76
2022/05/13 04:01:24;;;;;;;6.20;2.35;;;14.00;99.90;;;;;;5058858;28;20047;-75
2022/05/13 04:03:49;;;;;;;6.60;2.55;;;13.90;99.90;;;;;;5071738;28;20025;-75
2022/05/13 04:09:01;;;;;;;5.82;2.75;;;13.80;99.90;;;;;;5073811;28;20082;-75
2022/05/13 04:11:33;;;;;;;5.78;2.90;;;13.80;99.90;;;;;;5059634;28;20025;-76
2022/05/13 04:16:43;;;;;;;4.95;2.42;;;14.00;99.90;;;;;;5066983;28;20031;-75
2022/05/13 04:19:10;;;;;;;5.82;2.70;;;14.00;99.90;;;;;;5052246;28;20078;-74
2022/05/13 04:21:37;;;;;;;5.93;2.60;;;14.00;99.90;;;;;;5058498;28;20033;-75
2022/05/13 04:24:06;;;;;;;6.97;3.03;;;14.10;99.90;;;;;;5072045;28;20039;-74
2022/05/13 04:26:32;;;;;;;5.90;2.50;;;14.30;99.90;;;;;;5053721;28;20035;-75
2022/05/13 04:28:59;;;;;;;5.50;2.80;;;14.30;99.90;;;;;;5053299;28;20021;-76
2022/05/13 04:31:27;;;;;;;6.32;2.70;;;14.30;99.90;;;;;;5058500;28;20552;-76
2022/05/13 04:33:54;;;;;;;9.68;3.33;;;14.50;99.90;;;;;;5060375;28;20223;-75
2022/05/13 04:36:21;;;;;;;7.43;3.00;;;14.40;99.90;;;;;;5066198;28;20025;-75
2022/05/13 04:38:47;;;;;;;4.68;2.47;;;14.40;99.90;;;;;;5053156;28;20522;-75
2022/05/13 04:43:59;;;;;;;7.17;2.90;;;14.40;99.90;;;;;;5053037;28;20083;-75
2022/05/13 04:46:25;;;;;;;4.13;2.35;;;14.40;99.90;;;;;;5060376;28;20020;-75
2022/05/13 04:48:52;;;;;;;5.57;2.75;;;14.40;99.90;;;;;;5059627;28;20094;-75
2022/05/13 04:51:18;;;;;;;7.15;2.63;;;14.50;99.90;;;;;;5062908;28;20049;-75
2022/05/13 04:53:45;;;;;;;5.03;2.70;;;14.30;99.90;;;;;;5052787;28;20456;-75
2022/05/13 04:56:11;;;;;;;7.82;2.78;;;14.20;99.90;;;;;;5051360;28;20032;-74
2022/05/13 04:58:38;;;;;;;4.78;2.40;;;14.20;99.90;;;;;;5052620;28;20036;-74
2022/05/13 05:01:06;;;;;;;3.80;2.30;;;14.30;99.90;;;;;;5061948;28;20536;-74
2022/05/13 05:03:32;;;;;;;5.32;2.75;;;14.50;99.90;;;;;;5055463;28;20041;-75
2022/05/13 05:05:59;;;;;;;4.53;2.35;;;14.50;99.90;;;;;;5053363;28;20025;-75
2022/05/13 05:08:26;;;;;;;7.47;2.95;;;14.60;99.90;;;;;;5055397;28;20056;-75
2022/05/13 05:10:51;;;;;;;4.03;2.53;;;14.70;99.90;;;;;;5061193;28;20020;-74
2022/05/13 05:13:20;;;;;;;5.85;2.88;;;14.70;99.90;;;;;;5072382;28;20375;-75
2022/05/13 05:15:45;;;;;;;6.55;2.80;;;14.70;99.90;;;;;;5061630;28;20025;-75
2022/05/13 05:18:11;;;;;;;3.28;2.42;;;14.80;99.90;;;;;;5052101;28;20100;-74
2022/05/13 05:20:37;;;;;;;6.22;2.88;;;14.80;99.90;;;;;;5051715;28;20036;-75
2022/05/13 05:23:03;;;;;;;7.32;3.00;;;15.00;99.90;;;;;;5065604;28;20029;-74
2022/05/13 05:25:29;;;;;;;6.15;2.95;;;15.00;99.90;;;;;;5061991;28;20081;-74
2022/05/13 05:27:58;;;;;;;5.88;2.67;;;15.20;99.90;;;;;;5058700;28;20021;-74
2022/05/13 05:30:24;;;;;;;5.78;2.97;;;15.10;99.90;;;;;;5060139;28;20033;-74
2022/05/13 05:32:51;;;;;;;7.30;2.83;;;15.30;99.90;;;;;;5062096;28;20029;-75
2022/05/13 05:35:21;;;;;;;5.70;2.80;;;15.30;99.90;;;;;;5060749;28;20024;-75
2022/05/13 05:37:47;;;;;;;4.90;2.40;;;15.30;99.90;;;;;;5057128;28;20048;-75
2022/05/13 05:40:13;;;;;;;7.25;3.00;;;15.30;99.90;;;;;;5052156;28;20471;-76
2022/05/13 05:42:40;;;;;;;6.00;2.75;;;15.30;99.90;;;;;;5051879;28;20163;-74
2022/05/13 05:45:08;;;;;;;6.97;2.60;;;15.40;99.90;;;;;;5062533;28;20021;-74
2022/05/13 05:47:34;;;;;;;3.70;2.90;;;15.40;99.90;;;;;;5058583;28;20039;-74
2022/05/13 05:50:01;;;;;;;5.55;2.63;;;15.50;99.90;;;;;;5058219;28;20426;-75
2022/05/13 05:52:27;;;;;;;5.53;2.67;;;15.60;99.90;;;;;;5070348;28;20027;-74
2022/05/13 05:57:36;;;;;;;6.72;2.92;;;15.50;99.90;;;;;;5060286;28;20031;-75
2022/05/13 06:00:06;;;;;;;4.60;2.60;;;15.70;99.90;;;;;;5057980;28;20029;-73
2022/05/13 06:02:32;;;;;;;5.20;2.75;;;15.80;99.90;;;;;;5062818;28;20434;-75
2022/05/13 06:04:57;;;;;;;6.43;3.17;;;15.80;99.90;;;;;;5052828;28;20040;-75
2022/05/13 06:07:23;;;;;;;5.30;2.80;;;15.70;99.90;;;;;;5066998;28;20524;-76
2022/05/13 06:09:49;;;;;;;6.13;3.20;;;15.80;99.90;;;;;;5058237;28;20029;-75
2022/05/13 06:12:16;;;;;;;5.30;2.63;;;16.10;99.90;;;;;;5063169;28;20047;-75
2022/05/13 06:14:42;;;;;;;5.00;3.03;;;16.00;99.90;;;;;;5064884;28;20052;-74
2022/05/13 06:17:08;;;;;;;5.85;2.42;;;16.10;99.90;;;;;;5059940;28;20056;-75
2022/05/13 06:19:33;;;;;;;5.55;2.70;;;16.10;99.90;;;;;;5056578;28;20502;-75
2022/05/13 06:21:59;;;;;;;5.22;2.70;;;16.20;99.90;;;;;;5063133;28;20057;-75
2022/05/13 06:24:24;;;;;;;4.63;2.80;;;16.40;99.90;;;;;;5063539;28;20016;-75
2022/05/13 06:26:51;;;;;;;5.70;2.83;;;16.40;99.90;;;;;;5059085;28;20502;-75
2022/05/13 06:29:18;;;;;;;5.93;3.00;;;16.30;99.90;;;;;;5057806;28;20100;-75
2022/05/13 06:31:44;;;;;;;6.35;3.20;;;16.20;99.90;;;;;;5074071;28;20035;-76
2022/05/13 06:34:10;;;;;;;7.47;3.28;;;16.00;99.90;;;;;;5073819;28;20024;-75
2022/05/13 06:36:36;;;;;;;6.07;2.85;;;16.20;99.90;;;;;;5075532;28;20029;-76
2022/05/13 06:39:03;;;;;;;8.20;2.70;;;16.40;99.90;;;;;;5075380;28;20031;-76
2022/05/13 06:41:29;;;;;;;4.28;2.75;;;16.60;99.90;;;;;;5074728;28;20527;-76
2022/05/13 06:43:55;;;;;;;6.45;2.97;;;16.60;99.90;;;;;;5075137;28;20033;-75
2022/05/13 06:46:21;;;;;;;5.97;2.83;;;16.60;99.90;;;;;;5065551;28;20021;-76
2022/05/13 06:48:48;;;;;;;6.75;2.90;;;16.70;99.90;;;;;;5055131;28;20051;-76
2022/05/13 06:51:14;;;;;;;6.60;3.00;;;16.70;99.90;;;;;;5054582;28;20021;-76
2022/05/13 06:53:40;;;;;;;6.22;2.83;;;16.80;99.90;;;;;;5056928;28;20018;-76
2022/05/13 06:56:05;;;;;;;5.55;3.10;;;17.00;99.90;;;;;;5066392;28;20060;-76
2022/05/13 06:58:31;;;;;;;8.80;2.92;;;16.80;99.90;;;;;;5068530;28;20099;-75
2022/05/13 07:00:56;;;;;;;6.15;3.08;;;16.90;99.90;;;;;;5071620;28;20508;-76
2022/05/13 07:03:22;;;;;;;9.25;2.90;;;16.90;99.90;;;;;;5077390;28;20037;-77
2022/05/13 07:05:47;;;;;;;9.88;3.38;;;16.90;99.90;;;;;;5054689;28;20052;-76
2022/05/13 07:08:13;;;;;;;7.07;3.15;;;16.90;99.90;;;;;;5059206;28;20032;-76
2022/05/13 07:10:40;;;;;;;5.22;3.03;;;17.10;99.90;;;;;;5062794;28;20021;-76
2022/05/13 07:13:10;;;;;;;6.30;3.00;;;17.10;99.90;;;;;;5061443;28;20064;-76
2022/05/13 07:15:36;;;;;;;5.05;2.90;;;17.20;99.90;;;;;;5065449;28;20442;-76
2022/05/13 07:18:02;;;;;;;4.90;2.60;;;17.10;99.90;;;;;;5067924;28;20112;-76
2022/05/13 07:20:28;;;;;;;4.68;2.78;;;17.20;99.90;;;;;;5054191;28;20025;-75
2022/05/13 07:22:55;;;;;;;5.78;3.05;;;17.30;99.90;;;;;;5066797;28;20039;-75
2022/05/13 07:25:21;;;;;;;7.97;3.03;;;17.50;99.90;;;;;;5052851;28;20021;-75
2022/05/13 07:27:47;;;;;;;6.10;3.17;;;17.50;99.90;;;;;;5066470;28;20119;-75
2022/05/13 07:30:13;;;;;;;5.78;3.05;;;17.70;99.90;;;;;;5063673;28;20031;-75
2022/05/13 07:32:39;;;;;;;7.20;3.03;;;17.40;99.90;;;;;;5061188;28;20116;-75
2022/05/13 07:35:05;;;;;;;8.20;2.72;;;17.50;99.90;;;;;;5065117;28;20459;-75
2022/05/13 07:37:31;;;;;;;4.72;2.63;;;17.50;99.90;;;;;;5066491;28;20475;-75
2022/05/13 07:42:41;;;;;;;11.38;3.38;;;17.80;99.90;;;;;;5055371;28;20037;-75
2022/05/13 07:45:08;;;;;;;6.97;3.10;;;17.80;99.90;;;;;;5065345;28;20036;-75
2022/05/13 07:47:34;;;;;;;6.32;3.03;;;17.70;99.90;;;;;;5059227;28;20033;-75
2022/05/13 07:50:00;;;;;;;8.20;2.80;;;17.60;99.90;;;;;;5061806;28;20024;-75
2022/05/13 07:52:26;;;;;;;6.22;2.75;;;17.80;99.90;;;;;;5066952;28;20017;-75
2022/05/13 07:54:52;;;;;;;5.70;2.78;;;17.70;99.90;;;;;;5054341;28;20379;-75
2022/05/13 07:57:18;;;;;;;4.90;2.88;;;17.70;99.90;;;;;;5067602;28;20029;-75
2022/05/13 08:02:27;;;;;;;7.45;2.63;;;17.90;99.90;;;;;;5053868;28;20554;-74
2022/05/13 08:04:53;;;;;;;5.55;2.60;;;17.90;99.90;;;;;;5053731;28;20064;-74
2022/05/13 08:07:18;;;;;;;6.50;2.70;;;17.80;99.90;;;;;;5062172;28;20089;-75
2022/05/13 08:09:44;;;;;;;6.85;2.53;;;17.90;99.90;;;;;;5060437;28;20467;-76
2022/05/13 08:12:10;;;;;;;6.82;2.90;;;18.00;99.90;;;;;;5065193;28;20025;-76
2022/05/13 08:14:36;;;;;;;7.97;2.80;;;18.30;99.90;;;;;;5066964;28;20025;-76
2022/05/13 08:17:01;;;;;;;7.72;2.33;;;18.20;99.90;;;;;;5060282;28;20040;-76
2022/05/13 08:19:27;;;;;;;5.97;2.67;;;18.30;99.90;;;;;;5059374;28;20037;-76
2022/05/13 08:21:52;;;;;;;5.40;2.45;;;18.40;99.90;;;;;;5060567;28;20121;-76
2022/05/13 08:24:18;;;;;;;5.32;2.47;;;18.60;99.90;;;;;;5059146;28;20029;-76
2022/05/13 08:26:43;;;;;;;4.55;2.22;;;18.60;99.90;;;;;;5060792;28;20455;-76
2022/05/13 08:29:09;;;;;;;7.38;2.70;;;18.60;99.90;;;;;;5060101;28;20025;-75
2022/05/13 08:31:36;;;;;;;6.25;2.38;;;18.40;99.90;;;;;;5065041;28;20021;-76
2022/05/13 08:34:01;;;;;;;5.63;2.30;;;18.60;99.90;;;;;;5066625;28;20029;-72
2022/05/13 08:36:27;;;;;;;4.07;2.30;;;18.80;99.90;;;;;;5053242;28;20522;-73
2022/05/13 08:38:52;;;;;;;5.10;2.20;;;18.80;99.90;;;;;;5053677;28;20063;-76
2022/05/13 08:41:59;;;;;;;5.13;2.30;;;19.10;99.90;;;;;;5064220;28;20474;-76
2022/05/13 08:44:25;;;;;;;6.35;2.63;;;19.10;99.90;;;;;;5063313;28;20480;-76
2022/05/13 08:47:07;;;;;;;5.78;2.35;;;18.90;99.90;;;;;;5058996;28;20147;-76
2022/05/13 08:49:41;;;;;;;5.57;2.03;;;19.00;99.90;;;;;;5066933;28;20020;-71
2022/05/13 08:55:03;;;;;;;7.15;2.40;;;18.20;99.90;;;;;;5074744;28;20023;-71
2022/05/13 08:57:33;;;;;;;5.07;2.10;;;18.60;99.90;;;;;;5059566;28;20030;-71
2022/05/13 09:00:03;;;;;;;5.10;2.30;;;19.00;99.90;;;;;;5065501;28;20024;-76
2022/05/13 09:02:36;;;;;;;5.63;2.05;;;19.10;99.90;;;;;;5059216;28;20111;-75
2022/05/13 09:05:20;;;;;;;6.78;2.22;;;19.20;99.90;;;;;;5059028;28;20115;-76
2022/05/13 09:07:47;;;;;;;5.47;2.30;;;19.50;99.90;;;;;;5072740;28;20104;-75
2022/05/13 09:10:13;;;;;;;8.63;2.55;;;19.30;99.90;;;;;;5057623;28;20029;-76
2022/05/13 09:12:45;;;;;;;6.25;2.60;;;19.10;99.90;;;;;;5060295;28;20021;-75
2022/05/13 09:15:19;;;;;;;6.78;2.30;;;18.60;99.90;;;;;;5052423;28;20032;-76
2022/05/13 09:18:14;;;;;;;7.68;2.70;;;18.80;99.90;;;;;;5052914;28;20021;-76
2022/05/13 09:20:51;;;;;;;4.90;2.40;;;18.90;99.90;;;;;;5060807;28;20614;-76
2022/05/13 09:23:18;;;;;;;6.15;2.50;;;19.20;99.90;;;;;;5064459;28;20043;-76
2022/05/13 09:26:03;;;;;;;8.30;3.03;;;19.40;99.90;;;;;;5063335;28;20020;-76
2022/05/13 09:28:30;;;;;;;7.07;2.80;;;19.20;99.90;;;;;;5060868;28;20013;-76
2022/05/13 09:31:18;;;;;;;5.13;2.67;;;19.00;99.90;;;;;;5056182;28;20026;-75
2022/05/13 09:33:46;;;;;;;7.32;2.70;;;19.00;99.90;;;;;;5052137;28;20464;-74
2022/05/13 09:36:21;;;;;;;5.38;2.22;;;19.30;99.90;;;;;;5064448;28;20411;-74
2022/05/13 09:39:16;;;;;;;7.13;1.90;;;19.10;99.90;;;;;;5065399;28;20035;-74
2022/05/13 09:41:43;;;;;;;5.63;2.10;;;19.50;99.90;;;;;;5061770;28;20033;-74
2022/05/13 09:44:17;;;;;;;6.13;1.90;;;19.50;99.90;;;;;;5058492;28;20029;-76
2022/05/13 09:46:45;;;;;;;4.60;2.20;;;19.40;99.90;;;;;;5060413;28;20032;-77
2022/05/13 09:49:33;;;;;;;7.63;1.83;;;18.90;99.90;;;;;;5070655;28;20027;-77
2022/05/13 09:52:00;;;;;;;5.93;1.90;;;19.20;99.90;;;;;;5071425;28;20021;-76
2022/05/13 09:54:26;;;;;;;6.20;1.70;;;19.40;99.90;;;;;;5071785;28;20064;-75
2022/05/13 09:57:03;;;;;;;8.25;2.30;;;19.60;99.90;;;;;;5056888;28;20127;-76
2022/05/13 09:59:29;;;;;;;3.38;1.70;;;19.60;99.90;;;;;;5060158;28;20032;-76
2022/05/13 10:02:15;;;;;;;4.95;1.60;;;19.20;99.90;;;;;;5068106;28;20028;-75
2022/05/13 10:04:40;;;;;;;4.47;2.10;;;19.70;99.90;;;;;;5057858;28;20037;-76
2022/05/13 10:07:13;;;;;;;7.30;2.30;;;19.90;99.90;;;;;;5065641;28;20487;-76
2022/05/13 10:15:39;;;;;;;4.05;1.95;;;20.20;99.90;;;;;;5059465;28;20521;-75
2022/05/13 10:18:34;;;;;;;7.25;2.10;;;19.90;99.90;;;;;;5068799;28;20155;-74
2022/05/13 10:21:04;;;;;;;5.63;2.00;;;20.00;99.90;;;;;;5049767;28;20024;-76
2022/05/13 10:23:38;;;;;;;5.68;2.00;;;19.90;99.90;;;;;;5057745;28;20447;-76
2022/05/13 10:26:09;;;;;;;6.05;2.40;;;20.40;99.90;;;;;;5056670;28;20490;-76
2022/05/13 10:28:39;;;;;;;5.57;2.10;;;20.50;99.90;;;;;;5062321;28;20090;-76
2022/05/13 10:31:16;;;;;;;8.27;2.33;;;20.00;99.90;;;;;;5055299;28;20013;-79
2022/05/13 10:34:05;;;;;;;2.97;1.77;;;19.30;99.90;;;;;;5073168;28;20096;-78
2022/05/13 10:36:36;;;;;;;5.32;1.80;;;19.20;99.90;;;;;;5062360;28;20025;-78
2022/05/13 10:39:15;;;;;;;4.22;2.28;;;19.20;99.90;;;;;;5058673;28;20036;-78
2022/05/13 10:41:52;;;;;;;4.60;1.80;;;18.80;99.90;;;;;;5059832;28;20116;-76
2022/05/13 10:44:55;;;;;;;4.85;1.98;;;19.10;99.90;;;;;;5064672;28;20040;-77
2022/05/13 10:47:30;;;;;;;3.70;1.63;;;19.50;99.90;;;;;;5067696;28;20112;-77
2022/05/13 10:49:57;;;;;;;1.60;1.40;;;19.60;99.90;;;;;;5060366;28;20021;-76
2022/05/13 10:52:37;;;;;;;7.18;1.90;;;19.90;99.90;;;;;;5062492;28;20024;-76
2022/05/13 10:55:36;;;;;;;6.63;1.70;;;20.00;99.90;;;;;;5054589;28;20016;-76
2022/05/13 10:58:23;;;;;;;5.85;1.73;;;20.10;99.90;;;;;;5061844;28;20074;-76
2022/05/13 11:01:05;;;;;;;3.42;1.60;;;20.30;99.90;;;;;;5057433;28;20030;-76
2022/05/13 11:03:40;;;;;;;3.70;1.60;;;20.40;99.90;;;;;;5057438;28;20028;-76
2022/05/13 11:06:35;;;;;;;4.07;1.80;;;20.50;99.90;;;;;;5069608;28;20025;-76
2022/05/13 11:09:30;;;;;;;3.75;1.50;;;20.00;99.90;;;;;;5059637;28;20017;-76
2022/05/13 11:12:08;;;;;;;9.65;2.17;;;20.40;99.90;;;;;;5055576;28;20027;-75
2022/05/13 11:14:46;;;;;;;5.57;2.00;;;20.30;99.90;;;;;;5057430;28;20024;-76
2022/05/13 11:17:45;;;;;;;6.47;1.90;;;20.60;99.90;;;;;;5068934;28;20032;-76
2022/05/13 11:20:13;;;;;;;7.25;2.28;;;20.30;99.90;;;;;;5063880;28;20040;-76
2022/05/13 11:22:53;;;;;;;5.03;1.75;;;20.60;99.90;;;;;;5070255;28;20020;-76
2022/05/13 11:28:12;;;;;;;3.47;2.05;;;20.90;99.90;;;;;;5064509;28;20070;-76
2022/05/13 11:31:01;;;;;;;6.60;1.70;;;20.60;99.90;;;;;;5067566;28;20052;-76
2022/05/13 11:33:50;;;;;;;5.20;2.15;;;20.60;99.90;;;;;;5054292;28;20024;-76
2022/05/13 11:36:35;;;;;;;3.80;1.77;;;20.70;99.90;;;;;;5067809;28;20056;-76
2022/05/13 11:39:14;;;;;;;6.47;1.90;;;21.00;99.90;;;;;;5054839;28;20013;-76
2022/05/13 11:42:09;;;;;;;4.75;2.10;;;20.50;99.90;;;;;;5062798;28;20029;-76
2022/05/13 11:44:43;;;;;;;5.85;2.30;;;20.50;99.90;;;;;;5060618;28;20025;-76
2022/05/13 11:47:15;;;;;;;4.07;1.90;;;20.70;99.90;;;;;;5059608;28;20025;-77
2022/05/13 11:49:44;;;;;;;5.53;1.70;;;20.60;99.90;;;;;;5074217;28;20025;-77
2022/05/13 11:52:12;;;;;;;3.47;2.00;;;21.00;99.90;;;;;;5058846;28;20028;-77
2022/05/13 11:54:41;;;;;;;2.85;1.77;;;20.60;99.90;;;;;;5062376;28;20029;-76
2022/05/13 11:57:23;;;;;;;8.65;2.38;;;20.80;99.90;;;;;;5066017;28;20032;-76
2022/05/13 11:59:54;;;;;;;6.47;2.00;;;20.50;99.90;;;;;;5054217;28;20025;-76
2022/05/13 12:02:33;;;;;;;6.40;1.80;;;20.80;99.90;;;;;;5059191;28;20021;-76
2022/05/13 12:05:29;;;;;;;6.78;2.40;;;20.90;99.90;;;;;;5060009;28;20033;-76
2022/05/13 12:08:03;;;;;;;5.47;2.00;;;20.80;99.20;;;;;;5048813;28;20048;-77
2022/05/13 12:11:15;;;;;;;4.65;2.05;;;20.50;99.90;;;;;;5053342;28;20029;-76
2022/05/13 12:13:58;;;;;;;9.75;1.75;;;20.70;99.80;;;;;;5037402;28;20478;-76
2022/05/13 12:16:45;;;;;;;3.70;1.90;;;21.30;99.70;;;;;;5059087;28;20055;-76
2022/05/13 12:19:14;;;;;;;3.85;1.80;;;21.30;98.70;;;;;;5061389;28;20113;-76
2022/05/13 12:21:48;;;;;;;4.70;1.80;;;21.40;99.00;;;;;;5066621;28;20083;-76
2022/05/13 12:24:13;;;;;;;3.50;1.88;;;21.00;98.60;;;;;;5066978;28;20600;-76
2022/05/13 12:26:51;;;;;;;4.40;1.70;;;21.90;98.30;;;;;;5066871;28;20028;-76
2022/05/13 12:29:38;;;;;;;4.03;2.03;;;21.60;97.00;;;;;;5052653;28;20552;-76
2022/05/13 12:32:04;;;;;;;3.50;1.95;;;21.30;97.30;;;;;;5061708;28;20025;-76
2022/05/13 12:37:40;;;;;;;10.23;2.67;;;22.20;98.60;;;;;;5060675;28;20517;-76
2022/05/13 12:40:24;;;;;;;5.32;1.80;;;21.60;96.30;;;;;;5061263;28;20048;-76
2022/05/13 12:42:52;;;;;;;5.45;2.00;;;21.30;96.50;;;;;;5059738;28;20036;-77
2022/05/13 12:45:21;;;;;;;7.82;1.85;;;21.20;97.40;;;;;;5058429;28;20041;-77
2022/05/13 12:48:05;;;;;;;4.80;1.70;;;21.40;97.50;;;;;;5064507;28;20025;-77
2022/05/13 12:50:53;;;;;;;5.50;2.05;;;21.80;97.30;;;;;;5065786;28;20530;-76
2022/05/13 12:53:28;;;;;;;4.47;1.80;;;21.40;97.30;;;;;;5065949;28;20047;-77
2022/05/13 12:56:31;;;;;;;3.65;2.10;;;21.40;97.30;;;;;;5059000;28;20052;-76
2022/05/13 12:59:15;;;;;;;5.72;2.13;;;21.40;97.00;;;;;;5052435;28;20029;-76
2022/05/13 13:01:44;;;;;;;6.15;2.00;;;21.70;97.30;;;;;;5067338;28;20109;-76
2022/05/13 13:04:12;;;;;;;5.15;1.88;;;21.40;97.30;;;;;;5063999;28;20041;-76
2022/05/13 13:06:42;;;;;;;5.10;2.10;;;21.80;98.00;;;;;;5052739;28;20111;-76
2022/05/13 13:09:34;;;;;;;5.10;1.80;;;21.90;97.20;;;;;;5062253;28;20549;-76
2022/05/13 13:12:09;;;;;;;7.05;1.65;;;22.20;97.50;;;;;;5050256;28;20075;-76
2022/05/13 13:14:46;;;;;;;3.85;1.70;;;21.40;97.10;;;;;;5057574;28;20028;-77
2022/05/13 13:17:37;;;;;;;5.78;2.00;;;21.60;97.10;;;;;;5063366;28;20034;-76
2022/05/13 13:20:05;;;;;;;6.28;1.95;;;21.70;96.70;;;;;;5065900;28;20028;-76
2022/05/13 13:22:36;;;;;;;6.57;2.35;;;22.20;96.70;;;;;;5064665;28;20154;-77
2022/05/13 13:25:18;;;;;;;5.38;1.90;;;22.90;96.10;;;;;;5059000;28;20499;-76
2022/05/13 13:27:43;;;;;;;3.88;1.63;;;22.90;97.10;;;;;;5058627;28;20029;-77
2022/05/13 13:30:17;;;;;;;10.23;1.92;;;22.90;96.10;;;;;;5062239;28;20112;-77
2022/05/13 13:32:48;;;;;;;4.28;1.50;;;22.90;95.70;;;;;;5065669;28;20475;-77
2022/05/13 13:35:14;;;;;;;5.40;1.73;;;22.80;96.00;;;;;;5062413;28;20017;-77
2022/05/13 13:37:40;;;;;;;3.75;1.50;;;22.50;95.50;;;;;;5058552;28;20024;-77